createdAt,value
2018-11-25T00:00:30.429Z,91.30
2018-11-25T00:03:35.916Z,91.20
2018-11-25T00:06:42.599Z,91.10
2018-11-25T00:09:46.726Z,91.20
2018-11-25T00:12:52.214Z,91.20
2018-11-25T00:15:57.559Z,91.40
2018-11-25T00:19:02.986Z,91.50
2018-11-25T00:22:08.502Z,91.60
2018-11-25T00:25:15.311Z,91.60
2018-11-25T00:28:20.768Z,91.50
2018-11-25T00:31:26.476Z,91.60
2018-11-25T00:34:31.959Z,91.60
2018-11-25T00:37:37.390Z,91.40
2018-11-25T00:40:42.836Z,91.40
2018-11-25T00:43:48.382Z,91.30
2018-11-25T00:46:53.815Z,91.20
2018-11-25T00:49:59.206Z,91.10
2018-11-25T00:53:04.719Z,91.00
2018-11-25T00:56:10.183Z,90.90
2018-11-25T00:59:15.650Z,90.90
2018-11-25T01:02:21.137Z,90.70
2018-11-25T01:05:27.059Z,91.00
2018-11-25T01:08:32.536Z,91.00
2018-11-25T01:11:38.134Z,91.00
2018-11-25T01:14:43.592Z,91.20
2018-11-25T01:17:49.115Z,91.30
2018-11-25T01:20:54.497Z,91.40
2018-11-25T01:24:00.040Z,91.50
2018-11-25T01:27:06.464Z,91.50
2018-11-25T01:30:13.915Z,91.50
2018-11-25T01:33:19.463Z,91.60
2018-11-25T01:36:25.013Z,91.80
2018-11-25T01:39:30.460Z,91.60
2018-11-25T01:42:36.219Z,91.80
2018-11-25T01:45:42.386Z,91.60
2018-11-25T01:48:47.833Z,91.70
2018-11-25T01:51:53.463Z,91.70
2018-11-25T01:54:58.927Z,91.70
2018-11-25T01:58:04.369Z,91.80
2018-11-25T02:01:09.951Z,91.80
2018-11-25T02:04:15.383Z,91.80
2018-11-25T02:07:20.807Z,91.80
2018-11-25T02:10:26.389Z,91.80
2018-11-25T02:13:31.735Z,91.90
2018-11-25T02:16:37.166Z,91.70
2018-11-25T02:19:42.654Z,91.70
2018-11-25T02:22:48.155Z,91.70
2018-11-25T02:25:53.755Z,92.00
2018-11-25T02:28:59.154Z,91.80
2018-11-25T02:32:04.628Z,91.60
2018-11-25T02:35:12.315Z,91.50
2018-11-25T02:38:17.774Z,91.60
2018-11-25T02:41:23.328Z,91.50
2018-11-25T02:44:28.776Z,91.50
2018-11-25T02:47:34.219Z,91.40
2018-11-25T02:50:39.672Z,91.30
2018-11-25T02:53:45.203Z,91.50
2018-11-25T02:56:50.565Z,91.80
2018-11-25T02:59:56.019Z,92.00
2018-11-25T03:03:01.500Z,91.90
2018-11-25T03:06:07.125Z,91.90
2018-11-25T03:09:12.566Z,92.00
2018-11-25T03:12:18.117Z,92.00
2018-11-25T03:15:23.631Z,91.90
2018-11-25T03:18:28.990Z,91.80
2018-11-25T03:21:34.467Z,92.00
2018-11-25T03:24:39.826Z,91.90
2018-11-25T03:27:45.259Z,92.00
2018-11-25T03:30:50.627Z,92.00
2018-11-25T03:33:56.172Z,92.10
2018-11-25T03:37:01.611Z,92.20
2018-11-25T03:40:09.741Z,92.30
2018-11-25T03:43:15.242Z,92.30
2018-11-25T03:46:20.619Z,92.30
2018-11-25T03:49:26.059Z,92.20
2018-11-25T03:52:31.539Z,92.20
2018-11-25T03:55:36.965Z,92.10
2018-11-25T03:58:42.311Z,92.10
2018-11-25T04:01:47.862Z,92.10
2018-11-25T04:04:53.278Z,91.90
2018-11-25T04:07:58.663Z,91.90
2018-11-25T04:11:04.499Z,91.90
2018-11-25T04:14:09.943Z,91.90
2018-11-25T04:17:15.420Z,92.10
2018-11-25T04:20:21.929Z,92.00
2018-11-25T04:23:27.574Z,92.10
2018-11-25T04:26:32.958Z,92.10
2018-11-25T04:29:38.407Z,92.30
2018-11-25T04:32:45.648Z,92.20
2018-11-25T04:35:51.176Z,92.10
2018-11-25T04:38:56.598Z,91.70
2018-11-25T04:42:02.091Z,91.80
2018-11-25T04:45:13.290Z,91.90
2018-11-25T04:48:18.699Z,91.60
2018-11-25T04:51:24.175Z,91.80
2018-11-25T04:54:29.575Z,91.80
2018-11-25T04:57:35.175Z,91.70
2018-11-25T05:00:40.607Z,91.70
2018-11-25T05:03:46.130Z,91.80
2018-11-25T05:06:51.631Z,91.90
2018-11-25T05:09:57.047Z,92.10
2018-11-25T05:13:02.612Z,92.20
2018-11-25T05:16:08.047Z,92.00
2018-11-25T05:19:13.519Z,92.00
2018-11-25T05:22:19.082Z,92.00
2018-11-25T05:25:24.774Z,91.70
2018-11-25T05:28:30.139Z,91.80
2018-11-25T05:31:35.603Z,91.70
2018-11-25T05:34:41.028Z,91.80
2018-11-25T05:37:46.426Z,92.00
2018-11-25T05:40:52.411Z,91.90
2018-11-25T05:43:57.914Z,91.60
2018-11-25T05:47:03.359Z,92.00
2018-11-25T05:50:13.916Z,92.10
2018-11-25T05:53:19.371Z,92.10
2018-11-25T05:56:24.807Z,92.00
2018-11-25T05:59:30.303Z,92.10
2018-11-25T06:02:35.843Z,92.10
2018-11-25T06:05:41.252Z,92.10
2018-11-25T06:08:46.610Z,92.10
2018-11-25T06:11:52.067Z,92.20
2018-11-25T06:14:57.492Z,92.10
2018-11-25T06:18:02.867Z,92.10
2018-11-25T06:21:08.306Z,92.20
2018-11-25T06:24:13.759Z,92.20
2018-11-25T06:27:19.230Z,92.30
2018-11-25T06:30:24.639Z,92.30
2018-11-25T06:33:31.047Z,92.40
2018-11-25T06:36:36.456Z,92.50
2018-11-25T06:39:41.923Z,92.40
2018-11-25T06:42:47.889Z,92.30
2018-11-25T06:45:53.306Z,92.10
2018-11-25T06:48:58.831Z,92.00
2018-11-25T06:52:04.252Z,91.90
2018-11-25T06:55:11.888Z,91.90
2018-11-25T06:58:17.255Z,91.90
2018-11-25T07:01:22.711Z,91.90
2018-11-25T07:04:28.197Z,92.00
2018-11-25T07:07:33.630Z,92.10
2018-11-25T07:10:39.055Z,92.10
2018-11-25T07:13:44.518Z,92.10
2018-11-25T07:16:49.950Z,92.20
2018-11-25T07:19:55.424Z,92.20
2018-11-25T07:23:00.976Z,92.10
2018-11-25T07:26:06.560Z,92.20
2018-11-25T07:29:11.997Z,92.30
2018-11-25T07:32:17.495Z,92.60
2018-11-25T07:35:24.626Z,92.50
2018-11-25T07:38:29.983Z,92.80
2018-11-25T07:41:35.707Z,92.90
2018-11-25T07:44:41.167Z,93.10
2018-11-25T07:47:46.610Z,92.70
2018-11-25T07:50:52.063Z,93.00
2018-11-25T07:53:57.607Z,93.00
2018-11-25T07:57:03.053Z,93.00
2018-11-25T08:00:14.240Z,92.90
2018-11-25T08:03:19.721Z,93.00
2018-11-25T08:06:25.111Z,93.20
2018-11-25T08:09:30.512Z,93.30
2018-11-25T08:12:36.071Z,93.00
2018-11-25T08:15:41.431Z,92.90
2018-11-25T08:18:46.850Z,92.90
2018-11-25T08:21:52.400Z,92.70
2018-11-25T08:24:57.835Z,92.80
2018-11-25T08:28:03.283Z,92.60
2018-11-25T08:31:08.828Z,92.70
2018-11-25T08:34:14.298Z,92.60
2018-11-25T08:37:19.638Z,92.50
2018-11-25T08:40:26.282Z,92.80
2018-11-25T08:43:31.763Z,92.20
2018-11-25T08:46:37.204Z,92.30
2018-11-25T08:49:42.691Z,92.20
2018-11-25T08:52:50.172Z,92.10
2018-11-25T08:55:55.604Z,92.30
2018-11-25T08:59:01.143Z,92.00
2018-11-25T09:02:07.755Z,92.00
2018-11-25T09:05:14.984Z,92.00
2018-11-25T09:08:20.395Z,91.80
2018-11-25T09:11:25.910Z,91.80
2018-11-25T09:14:31.396Z,91.90
2018-11-25T09:17:36.787Z,91.80
2018-11-25T09:20:42.254Z,91.70
2018-11-25T09:23:47.803Z,91.60
2018-11-25T09:26:53.291Z,91.70
2018-11-25T09:29:58.768Z,91.50
2018-11-25T09:33:04.495Z,91.60
2018-11-25T09:36:12.063Z,91.30
2018-11-25T09:39:17.418Z,91.20
2018-11-25T09:42:22.999Z,91.10
2018-11-25T09:45:28.414Z,91.10
2018-11-25T09:48:33.748Z,91.00
2018-11-25T09:51:39.131Z,91.10
2018-11-25T09:54:44.478Z,91.00
2018-11-25T09:57:52.614Z,91.00
2018-11-25T10:00:57.975Z,91.10
2018-11-25T10:04:03.368Z,91.00
2018-11-25T10:07:08.731Z,91.10
2018-11-25T10:10:18.267Z,90.80
2018-11-25T10:13:23.713Z,90.60
2018-11-25T10:16:29.059Z,90.80
2018-11-25T10:19:34.413Z,90.70
2018-11-25T10:22:39.833Z,90.50
2018-11-25T10:25:45.219Z,90.30
2018-11-25T10:28:50.563Z,90.20
2018-11-25T10:31:56.157Z,90.00
2018-11-25T10:35:01.684Z,90.00
2018-11-25T10:38:07.275Z,89.60
2018-11-25T10:41:12.623Z,89.70
2018-11-25T10:44:18.301Z,89.00
2018-11-25T10:47:23.519Z,89.00
2018-11-25T10:50:29.287Z,88.40
2018-11-25T10:53:34.742Z,88.80
2018-11-25T10:56:40.609Z,89.30
2018-11-25T10:59:48.386Z,89.00
2018-11-25T11:02:59.251Z,90.20
2018-11-25T11:06:10.127Z,90.20
2018-11-25T11:09:15.894Z,88.80
2018-11-25T11:12:21.661Z,89.10
2018-11-25T11:15:27.434Z,88.90
2018-11-25T11:18:32.800Z,88.90
2018-11-25T11:21:38.272Z,88.80
2018-11-25T11:24:43.955Z,89.20
2018-11-25T11:27:49.431Z,89.50
2018-11-25T11:30:55.083Z,89.40
2018-11-25T11:34:00.714Z,89.60
2018-11-25T11:37:06.555Z,89.80
2018-11-25T11:40:13.965Z,89.80
2018-11-25T11:43:19.671Z,90.00
2018-11-25T11:46:25.294Z,90.10
2018-11-25T11:49:30.654Z,90.30
2018-11-25T11:52:36.210Z,90.40
2018-11-25T11:55:41.596Z,90.40
2018-11-25T11:58:47.046Z,90.60
2018-11-25T12:01:52.531Z,90.60
2018-11-25T12:04:57.979Z,90.70
2018-11-25T12:08:03.443Z,90.60
2018-11-25T12:11:08.974Z,90.60
2018-11-25T12:14:14.323Z,90.40
2018-11-25T12:17:19.773Z,90.40
2018-11-25T12:20:26.399Z,90.40
2018-11-25T12:23:31.835Z,90.50
2018-11-25T12:26:37.258Z,90.40
2018-11-25T12:29:42.792Z,90.40
2018-11-25T12:32:50.858Z,90.30
2018-11-25T12:35:56.359Z,90.60
2018-11-25T12:39:02.354Z,90.60
2018-11-25T12:42:07.869Z,90.80
2018-11-25T12:45:16.882Z,90.80
2018-11-25T12:48:22.524Z,91.00
2018-11-25T12:51:58.583Z,91.20
2018-11-25T12:55:03.936Z,91.00
2018-11-25T12:58:09.344Z,90.90
2018-11-25T13:01:14.739Z,90.80
2018-11-25T13:04:20.096Z,90.60
2018-11-25T13:07:25.480Z,90.60
2018-11-25T13:10:30.860Z,90.50
2018-11-25T13:13:36.314Z,90.50
2018-11-25T13:16:41.672Z,90.50
2018-11-25T13:19:46.999Z,90.50
2018-11-25T13:22:52.428Z,90.50
2018-11-25T13:25:57.787Z,90.40
2018-11-25T13:29:03.211Z,90.50
2018-11-25T13:32:08.670Z,90.60
2018-11-25T13:35:14.066Z,90.60
2018-11-25T13:38:19.499Z,90.60
2018-11-25T13:41:24.891Z,90.50
2018-11-25T13:44:30.310Z,90.40
2018-11-25T13:47:35.740Z,90.50
2018-11-25T13:50:41.139Z,90.50
2018-11-25T13:53:46.559Z,90.40
2018-11-25T13:56:51.926Z,90.30
2018-11-25T13:59:57.532Z,90.40
2018-11-25T14:03:03.887Z,90.40
2018-11-25T14:06:14.560Z,90.50
2018-11-25T14:09:20.004Z,90.50
2018-11-25T14:12:25.518Z,90.30
2018-11-25T14:15:31.268Z,90.30
2018-11-25T14:18:36.749Z,90.40
2018-11-25T14:21:42.222Z,90.40
2018-11-25T14:24:47.651Z,90.50
2018-11-25T14:27:55.983Z,90.50
2018-11-25T14:31:01.356Z,90.50
2018-11-25T14:34:07.163Z,90.30
2018-11-25T14:37:12.673Z,90.30
2018-11-25T14:40:20.017Z,90.30
2018-11-25T14:43:25.447Z,90.10
2018-11-25T14:46:30.883Z,90.10
2018-11-25T14:49:36.235Z,90.20
2018-11-25T14:52:42.491Z,90.20
2018-11-25T14:55:47.847Z,90.20
2018-11-25T14:58:53.283Z,90.20
2018-11-25T15:01:58.735Z,90.20
2018-11-25T15:05:04.156Z,90.30
2018-11-25T15:08:11.289Z,90.40
2018-11-25T15:11:16.759Z,90.50
2018-11-25T15:14:22.119Z,90.70
2018-11-25T15:17:27.455Z,90.70
2018-11-25T15:20:32.839Z,90.80
2018-11-25T15:23:38.385Z,90.90
2018-11-25T15:26:43.743Z,91.00
2018-11-25T15:29:49.096Z,91.10
2018-11-25T15:32:54.434Z,91.10
2018-11-25T15:35:59.775Z,91.20
2018-11-25T15:39:09.403Z,91.20
2018-11-25T15:42:14.779Z,91.20
2018-11-25T15:45:20.158Z,91.20
2018-11-25T15:48:30.444Z,91.30
2018-11-25T15:51:35.848Z,91.40
2018-11-25T15:54:41.204Z,91.50
2018-11-25T15:57:46.555Z,91.60
2018-11-25T16:00:51.915Z,91.80
2018-11-25T16:03:57.567Z,91.70
2018-11-25T16:07:03.067Z,91.80
2018-11-25T16:10:12.868Z,91.70
2018-11-25T16:13:18.247Z,91.70
2018-11-25T16:16:23.643Z,91.60
2018-11-25T16:19:28.951Z,91.70
2018-11-25T16:22:34.626Z,91.70
2018-11-25T16:25:47.263Z,91.80
2018-11-25T16:28:55.919Z,91.80
2018-11-25T16:32:01.320Z,91.80
2018-11-25T16:35:08.727Z,91.80
2018-11-25T16:38:14.100Z,91.80
2018-11-25T16:41:19.532Z,91.80
2018-11-25T16:44:24.876Z,92.00
2018-11-25T16:47:30.231Z,92.00
2018-11-25T16:50:35.619Z,92.10
2018-11-25T16:53:41.003Z,92.10
2018-11-25T16:56:46.379Z,92.20
2018-11-25T16:59:51.743Z,92.10
2018-11-25T17:02:57.139Z,92.10
2018-11-25T17:06:02.619Z,92.10
2018-11-25T17:09:12.010Z,92.00
2018-11-25T17:12:17.387Z,92.10
2018-11-25T17:15:24.819Z,92.00
2018-11-25T17:18:30.182Z,92.00
2018-11-25T17:21:35.551Z,92.10
2018-11-25T17:24:40.907Z,92.10
2018-11-25T17:27:46.328Z,92.10
2018-11-25T17:30:51.688Z,92.10
2018-11-25T17:33:57.032Z,92.10
2018-11-25T17:37:02.404Z,92.10
2018-11-25T17:40:09.730Z,92.00
2018-11-25T17:43:18.812Z,92.00
2018-11-25T17:46:24.235Z,92.10
2018-11-25T17:49:29.564Z,92.10
2018-11-25T17:52:34.978Z,92.20
2018-11-25T17:55:40.350Z,92.10
2018-11-25T17:58:45.691Z,92.10
2018-11-25T18:01:51.062Z,92.10
2018-11-25T18:04:56.428Z,92.00
2018-11-25T18:08:01.780Z,92.10
2018-11-25T18:11:07.887Z,92.20
2018-11-25T18:14:13.220Z,92.10
2018-11-25T18:17:18.564Z,92.10
2018-11-25T18:20:24.692Z,92.20
2018-11-25T18:23:30.059Z,92.20
2018-11-25T18:26:35.446Z,92.10
2018-11-25T18:29:40.771Z,92.20
2018-11-25T18:32:46.683Z,92.20
2018-11-25T18:35:52.012Z,92.20
2018-11-25T18:38:57.361Z,92.30
2018-11-25T18:42:02.787Z,92.30
2018-11-25T18:45:12.210Z,92.30
2018-11-25T18:48:18.285Z,92.30
2018-11-25T18:51:23.748Z,92.40
2018-11-25T18:54:29.079Z,92.40
2018-11-25T18:57:34.455Z,92.30
2018-11-25T19:00:46.870Z,92.10
2018-11-25T19:03:52.284Z,92.10
2018-11-25T19:06:57.665Z,92.20
2018-11-25T19:10:03.020Z,92.20
2018-11-25T19:13:08.792Z,92.20
2018-11-25T19:16:14.143Z,92.10
2018-11-25T19:19:19.495Z,92.00
2018-11-25T19:22:26.108Z,92.10
2018-11-25T19:25:33.651Z,91.90
2018-11-25T19:28:39.098Z,91.90
2018-11-25T19:31:44.918Z,91.80
2018-11-25T19:34:50.381Z,91.70
2018-11-25T19:37:55.751Z,91.70
2018-11-25T19:41:01.200Z,91.60
2018-11-25T19:44:07.377Z,91.70
2018-11-25T19:47:12.899Z,91.90
2018-11-25T19:50:28.597Z,91.40
2018-11-25T19:53:34.028Z,91.30
2018-11-25T19:56:39.419Z,91.40
2018-11-25T19:59:44.911Z,91.30
2018-11-25T20:02:50.356Z,91.30
2018-11-25T20:05:55.846Z,91.30
2018-11-25T20:09:01.235Z,91.50
2018-11-25T20:12:06.954Z,91.40
2018-11-25T20:15:14.900Z,91.30
2018-11-25T20:18:20.599Z,91.30
2018-11-25T20:21:31.277Z,91.40
2018-11-25T20:24:36.667Z,91.20
2018-11-25T20:27:43.472Z,91.10
2018-11-25T20:30:48.867Z,91.20
2018-11-25T20:33:57.667Z,91.10
2018-11-25T20:37:03.015Z,91.00
2018-11-25T20:40:09.034Z,90.90
2018-11-25T20:43:14.419Z,90.90
2018-11-25T20:47:24.051Z,90.90
2018-11-25T20:50:29.447Z,91.10
2018-11-25T20:53:39.940Z,90.90
2018-11-25T20:56:45.274Z,90.90
2018-11-25T20:59:50.648Z,90.90
2018-11-25T21:02:56.035Z,90.90
2018-11-25T21:06:01.421Z,90.90
2018-11-25T21:09:10.377Z,90.80
2018-11-25T21:12:15.755Z,90.80
2018-11-25T21:15:32.835Z,90.80
2018-11-25T21:18:38.383Z,90.90
2018-11-25T21:21:43.808Z,90.80
2018-11-25T21:24:49.227Z,90.90
2018-11-25T21:27:54.615Z,90.90
2018-11-25T21:31:00.390Z,90.80
2018-11-25T21:34:06.263Z,90.90
2018-11-25T21:37:11.676Z,90.90
2018-11-25T21:40:19.569Z,91.00
2018-11-25T21:43:24.955Z,91.10
2018-11-25T21:46:30.324Z,91.20
2018-11-25T21:49:35.660Z,91.10
2018-11-25T21:52:41.185Z,91.10
2018-11-25T21:55:46.548Z,91.10
2018-11-25T21:58:52.497Z,91.20
2018-11-25T22:01:58.044Z,91.20
2018-11-25T22:05:03.393Z,91.40
2018-11-25T22:08:08.851Z,91.40
2018-11-25T22:11:14.319Z,91.50
2018-11-25T22:14:19.766Z,91.50
2018-11-25T22:17:25.125Z,91.60
2018-11-25T22:20:30.511Z,91.60
2018-11-25T22:23:35.984Z,91.70
2018-11-25T22:26:41.432Z,91.50
2018-11-25T22:29:46.775Z,91.50
2018-11-25T22:32:52.679Z,91.60
2018-11-25T22:35:58.055Z,91.60
2018-11-25T22:39:03.707Z,91.70
2018-11-25T22:42:09.184Z,91.60
2018-11-25T22:45:17.084Z,91.70
2018-11-25T22:48:22.436Z,91.80
2018-11-25T22:51:27.969Z,91.80
2018-11-25T22:54:33.435Z,91.80
2018-11-25T22:57:38.799Z,91.80
2018-11-25T23:00:44.621Z,91.80
2018-11-25T23:04:05.996Z,92.00
2018-11-25T23:07:11.403Z,91.80
2018-11-25T23:10:17.092Z,91.80
2018-11-25T23:13:22.619Z,91.80
2018-11-25T23:16:28.042Z,91.90
2018-11-25T23:19:33.519Z,91.90
2018-11-25T23:22:38.996Z,92.00
2018-11-25T23:25:44.404Z,92.10
2018-11-25T23:28:49.852Z,92.20
2018-11-25T23:31:55.244Z,92.30
2018-11-25T23:35:00.611Z,92.30
2018-11-25T23:38:06.588Z,92.20
2018-11-25T23:41:12.663Z,92.30
2018-11-25T23:44:18.131Z,92.30
2018-11-25T23:47:23.558Z,92.30
2018-11-25T23:50:29.022Z,92.20
2018-11-25T23:53:34.585Z,92.20
2018-11-25T23:56:40.012Z,92.30
2018-11-25T23:59:45.475Z,92.30
